createdAt,value
2017-12-10T00:00:28.252Z,1004.65
2017-12-10T00:01:28.537Z,1004.60
2017-12-10T00:02:27.875Z,1004.56
2017-12-10T00:03:27.995Z,1004.55
2017-12-10T00:04:28.112Z,1004.55
2017-12-10T00:05:28.314Z,1004.55
2017-12-10T00:06:28.480Z,1004.56
2017-12-10T00:07:29.505Z,1004.56
2017-12-10T00:08:28.709Z,1004.49
2017-12-10T00:09:28.726Z,1004.48
2017-12-10T00:10:28.141Z,1004.46
2017-12-10T00:11:28.391Z,1004.40
2017-12-10T00:12:28.555Z,1004.26
2017-12-10T00:13:28.630Z,1004.39
2017-12-10T00:14:27.799Z,1004.32
2017-12-10T00:15:28.154Z,1004.28
2017-12-10T00:16:29.035Z,1004.21
2017-12-10T00:17:28.434Z,1004.19
2017-12-10T00:18:28.422Z,1004.15
2017-12-10T00:19:28.679Z,1004.16
2017-12-10T00:20:28.741Z,1004.15
2017-12-10T00:21:27.938Z,1004.06
2017-12-10T00:22:28.313Z,1003.86
2017-12-10T00:24:14.414Z,1004.01
2017-12-10T00:25:15.243Z,1003.99
2017-12-10T00:26:37.506Z,1003.94
2017-12-10T00:27:37.968Z,1003.98
2017-12-10T00:28:38.097Z,1003.97
2017-12-10T00:29:38.427Z,1003.99
2017-12-10T00:30:37.763Z,1004.01
2017-12-10T00:31:38.000Z,1003.97
2017-12-10T00:32:38.475Z,1003.90
2017-12-10T00:33:38.059Z,1003.92
2017-12-10T00:34:38.610Z,1003.88
2017-12-10T00:35:37.843Z,1003.85
2017-12-10T00:36:38.129Z,1003.89
2017-12-10T00:37:38.648Z,1003.89
2017-12-10T00:38:37.906Z,1003.84
2017-12-10T00:39:38.218Z,1003.77
2017-12-10T00:40:38.397Z,1003.80
2017-12-10T00:41:37.960Z,1003.72
2017-12-10T00:42:38.357Z,1003.73
2017-12-10T00:43:37.859Z,1003.74
2017-12-10T00:44:37.952Z,1003.69
2017-12-10T00:45:38.094Z,1003.72
2017-12-10T00:46:38.552Z,1003.62
2017-12-10T00:47:37.772Z,1003.59
2017-12-10T00:48:38.057Z,1003.60
2017-12-10T00:49:38.148Z,1003.56
2017-12-10T00:50:38.319Z,1003.55
2017-12-10T00:51:38.527Z,1003.51
2017-12-10T00:52:37.894Z,1003.50
2017-12-10T00:53:38.231Z,1003.45
2017-12-10T00:54:38.782Z,1003.41
2017-12-10T00:55:39.202Z,1003.41
2017-12-10T00:56:38.371Z,1003.40
2017-12-10T00:57:38.298Z,1003.43
2017-12-10T00:58:37.662Z,1003.42
2017-12-10T00:59:38.002Z,1003.49
2017-12-10T01:00:38.239Z,1003.46
2017-12-10T01:01:38.544Z,1003.47
2017-12-10T01:02:37.940Z,1003.40
2017-12-10T01:04:01.874Z,1003.32
2017-12-10T01:05:02.157Z,1003.37
2017-12-10T01:06:03.839Z,1003.41
2017-12-10T01:07:02.388Z,1003.39
2017-12-10T01:08:03.259Z,1003.33
2017-12-10T01:09:02.460Z,1003.34
2017-12-10T01:10:02.619Z,1003.26
2017-12-10T01:11:02.647Z,1003.32
2017-12-10T01:12:01.893Z,1003.23
2017-12-10T01:13:02.233Z,1003.24
2017-12-10T01:14:02.538Z,1003.24
2017-12-10T01:15:02.123Z,1003.20
2017-12-10T01:16:02.517Z,1003.17
2017-12-10T01:17:01.838Z,1003.22
2017-12-10T01:18:01.946Z,1003.19
2017-12-10T01:19:02.317Z,1003.25
2017-12-10T01:20:02.488Z,1003.12
2017-12-10T01:21:01.663Z,1003.09
2017-12-10T01:22:01.897Z,1003.09
2017-12-10T01:23:02.064Z,1003.11
2017-12-10T01:24:02.484Z,1003.07
2017-12-10T01:25:01.713Z,1003.15
2017-12-10T01:26:03.628Z,1003.09
2017-12-10T01:27:01.769Z,1003.03
2017-12-10T01:28:01.940Z,1003.04
2017-12-10T01:29:02.224Z,1003.07
2017-12-10T01:30:02.255Z,1003.02
2017-12-10T01:31:02.595Z,1002.99
2017-12-10T01:32:01.818Z,1003.00
2017-12-10T01:33:02.389Z,1003.02
2017-12-10T01:34:02.623Z,1003.03
2017-12-10T01:35:01.830Z,1002.98
2017-12-10T01:36:02.170Z,1003.00
2017-12-10T01:37:02.315Z,1003.04
2017-12-10T01:38:02.609Z,1002.93
2017-12-10T01:39:01.676Z,1003.01
2017-12-10T01:40:02.019Z,1002.89
2017-12-10T01:41:02.279Z,1002.94
2017-12-10T01:42:02.911Z,1002.99
2017-12-10T01:43:25.273Z,1002.83
2017-12-10T01:44:25.673Z,1002.93
2017-12-10T01:45:26.596Z,1002.95
2017-12-10T01:46:25.710Z,1002.90
2017-12-10T01:47:26.018Z,1002.90
2017-12-10T01:48:25.181Z,1002.80
2017-12-10T01:49:25.450Z,1002.72
2017-12-10T01:50:48.962Z,1002.71
2017-12-10T01:51:49.199Z,1002.65
2017-12-10T01:52:49.408Z,1002.68
2017-12-10T01:53:49.524Z,1002.65
2017-12-10T01:54:49.713Z,1002.61
2017-12-10T01:55:49.989Z,1002.54
2017-12-10T01:56:49.216Z,1002.55
2017-12-10T01:58:12.695Z,1002.54
2017-12-10T01:59:13.185Z,1002.53
2017-12-10T02:00:12.399Z,1002.54
2017-12-10T02:01:12.883Z,1002.48
2017-12-10T02:02:13.642Z,1002.44
2017-12-10T02:03:13.182Z,1002.51
2017-12-10T02:04:13.471Z,1002.47
2017-12-10T02:05:13.002Z,1002.52
2017-12-10T02:06:13.530Z,1002.48
2017-12-10T02:07:13.364Z,1002.38
2017-12-10T02:08:13.005Z,1002.35
2017-12-10T02:09:13.659Z,1002.37
2017-12-10T02:10:13.324Z,1002.29
2017-12-10T02:11:13.655Z,1002.27
2017-12-10T02:12:12.901Z,1002.29
2017-12-10T02:13:13.551Z,1002.24
2017-12-10T02:14:14.230Z,1002.29
2017-12-10T02:15:13.726Z,1002.25
2017-12-10T02:16:12.958Z,1002.22
2017-12-10T02:17:13.385Z,1002.23
2017-12-10T02:18:12.960Z,1002.22
2017-12-10T02:19:13.405Z,1002.21
2017-12-10T02:20:35.838Z,1002.17
2017-12-10T02:21:36.165Z,1002.11
2017-12-10T02:22:39.158Z,1002.06
2017-12-10T02:23:36.512Z,1002.12
2017-12-10T02:24:35.715Z,1002.07
2017-12-10T02:25:36.008Z,1002.05
2017-12-10T02:26:36.131Z,1002.02
2017-12-10T02:27:36.410Z,1002.08
2017-12-10T02:28:35.708Z,1002.07
2017-12-10T02:29:35.826Z,1001.97
2017-12-10T02:30:36.130Z,1001.96
2017-12-10T02:31:59.287Z,1001.95
2017-12-10T02:33:22.363Z,1001.91
2017-12-10T02:34:22.700Z,1001.88
2017-12-10T02:35:23.151Z,1001.90
2017-12-10T02:36:22.562Z,1001.90
2017-12-10T02:37:22.883Z,1001.86
2017-12-10T02:38:23.041Z,1001.85
2017-12-10T02:39:23.235Z,1001.84
2017-12-10T02:40:25.757Z,1001.83
2017-12-10T02:41:22.879Z,1001.79
2017-12-10T02:42:22.984Z,1001.81
2017-12-10T02:43:23.404Z,1001.75
2017-12-10T02:44:22.646Z,1001.73
2017-12-10T02:45:22.830Z,1001.68
2017-12-10T02:46:23.215Z,1001.71
2017-12-10T02:47:22.429Z,1001.61
2017-12-10T02:48:22.771Z,1001.60
2017-12-10T02:49:22.829Z,1001.60
2017-12-10T02:50:23.009Z,1001.59
2017-12-10T02:51:23.269Z,1001.58
2017-12-10T02:52:22.473Z,1001.60
2017-12-10T02:53:22.611Z,1001.52
2017-12-10T02:54:22.785Z,1001.51
2017-12-10T02:55:23.090Z,1001.46
2017-12-10T02:56:23.371Z,1001.41
2017-12-10T02:57:22.644Z,1001.46
2017-12-10T02:58:22.897Z,1001.42
2017-12-10T02:59:23.067Z,1001.37
2017-12-10T03:00:23.052Z,1001.31
2017-12-10T03:01:23.312Z,1001.23
2017-12-10T03:02:22.528Z,1001.21
2017-12-10T03:03:22.791Z,1001.23
2017-12-10T03:04:23.091Z,1001.14
2017-12-10T03:05:23.097Z,1001.12
2017-12-10T03:06:22.397Z,1001.05
2017-12-10T03:07:22.622Z,1001.06
2017-12-10T03:08:22.798Z,1001.08
2017-12-10T03:09:23.087Z,1001.06
2017-12-10T03:10:22.397Z,1001.03
2017-12-10T03:11:22.519Z,1001.02
2017-12-10T03:12:22.654Z,1000.97
2017-12-10T03:13:22.853Z,1000.98
2017-12-10T03:14:23.081Z,1000.89
2017-12-10T03:15:23.230Z,1000.86
2017-12-10T03:16:22.520Z,1000.87
2017-12-10T03:17:22.794Z,1000.87
2017-12-10T03:18:22.935Z,1000.87
2017-12-10T03:19:23.133Z,1000.83
2017-12-10T03:20:23.236Z,1000.85
2017-12-10T03:21:22.481Z,1000.79
2017-12-10T03:22:22.851Z,1000.86
2017-12-10T03:23:23.015Z,1000.80
2017-12-10T03:24:23.175Z,1000.84
2017-12-10T03:25:23.214Z,1000.85
2017-12-10T03:26:45.234Z,1000.80
2017-12-10T03:27:22.393Z,1000.77
2017-12-10T03:28:22.538Z,1000.76
2017-12-10T03:29:22.792Z,1000.78
2017-12-10T03:30:22.988Z,1000.80
2017-12-10T03:31:23.239Z,1000.78
2017-12-10T03:32:22.407Z,1000.73
2017-12-10T03:33:22.573Z,1000.85
2017-12-10T03:34:22.956Z,1000.77
2017-12-10T03:35:23.221Z,1000.75
2017-12-10T03:36:22.409Z,1000.71
2017-12-10T03:37:22.608Z,1000.77
2017-12-10T03:38:22.903Z,1000.74
2017-12-10T03:39:23.055Z,1000.78
2017-12-10T03:40:23.198Z,1000.77
2017-12-10T03:41:22.439Z,1000.71
2017-12-10T03:42:45.618Z,1000.59
2017-12-10T03:43:45.852Z,1000.59
2017-12-10T03:44:46.060Z,1000.59
2017-12-10T03:45:46.292Z,1000.57
2017-12-10T03:46:46.439Z,1000.50
2017-12-10T03:47:46.607Z,1000.49
2017-12-10T03:48:45.830Z,1000.44
2017-12-10T03:49:45.946Z,1000.42
2017-12-10T03:50:46.135Z,1000.42
2017-12-10T03:51:46.334Z,1000.39
2017-12-10T03:52:46.476Z,1000.14
2017-12-10T03:53:45.761Z,1000.37
2017-12-10T03:54:45.911Z,1000.35
2017-12-10T03:55:45.966Z,1000.23
2017-12-10T03:56:46.175Z,1000.24
2017-12-10T03:57:46.364Z,1000.23
2017-12-10T03:58:46.468Z,1000.25
2017-12-10T03:59:46.516Z,1000.22
2017-12-10T04:00:45.756Z,1000.22
2017-12-10T04:02:08.826Z,1000.19
2017-12-10T04:03:09.150Z,1000.17
2017-12-10T04:04:09.426Z,1000.13
2017-12-10T04:05:09.676Z,1000.12
2017-12-10T04:06:08.925Z,1000.11
2017-12-10T04:07:09.175Z,1000.07
2017-12-10T04:08:09.451Z,1000.06
2017-12-10T04:09:09.410Z,1000.03
2017-12-10T04:10:09.709Z,1000.06
2017-12-10T04:11:08.868Z,1000.06
2017-12-10T04:12:08.987Z,1000.00
2017-12-10T04:13:09.109Z,999.99
2017-12-10T04:14:10.819Z,999.94
2017-12-10T04:15:08.976Z,999.96
2017-12-10T04:16:09.152Z,999.90
2017-12-10T04:17:09.285Z,999.87
2017-12-10T04:18:09.475Z,999.88
2017-12-10T04:19:09.472Z,999.83
2017-12-10T04:20:09.678Z,999.85
2017-12-10T04:21:09.746Z,999.74
2017-12-10T04:22:08.831Z,999.75
2017-12-10T04:23:09.008Z,999.75
2017-12-10T04:24:09.239Z,999.70
2017-12-10T04:25:09.429Z,999.68
2017-12-10T04:26:09.518Z,999.64
2017-12-10T04:27:09.688Z,999.66
2017-12-10T04:28:09.798Z,999.63
2017-12-10T04:29:08.814Z,999.55
2017-12-10T04:30:08.921Z,999.60
2017-12-10T04:31:09.204Z,999.59
2017-12-10T04:32:09.366Z,999.55
2017-12-10T04:33:09.601Z,999.50
2017-12-10T04:34:09.723Z,999.48
2017-12-10T04:35:08.802Z,999.44
2017-12-10T04:36:08.970Z,999.49
2017-12-10T04:37:09.156Z,999.47
2017-12-10T04:38:09.419Z,999.45
2017-12-10T04:39:09.688Z,999.40
2017-12-10T04:40:08.978Z,999.40
2017-12-10T04:41:09.292Z,999.35
2017-12-10T04:42:09.468Z,999.37
2017-12-10T04:43:09.673Z,999.32
2017-12-10T04:44:08.899Z,999.32
2017-12-10T04:45:08.980Z,999.29
2017-12-10T04:46:09.198Z,999.27
2017-12-10T04:47:09.496Z,999.21
2017-12-10T04:48:09.644Z,999.22
2017-12-10T04:49:09.883Z,999.26
2017-12-10T04:50:09.076Z,999.25
2017-12-10T04:51:09.400Z,999.23
2017-12-10T04:52:09.532Z,999.21
2017-12-10T04:53:09.670Z,999.19
2017-12-10T04:54:08.855Z,999.14
2017-12-10T04:55:09.045Z,999.14
2017-12-10T04:56:09.302Z,999.08
2017-12-10T04:57:09.590Z,999.02
2017-12-10T04:58:09.623Z,998.98
2017-12-10T04:59:08.843Z,998.92
2017-12-10T05:00:08.920Z,998.94
2017-12-10T05:01:09.141Z,998.87
2017-12-10T05:02:09.181Z,998.89
2017-12-10T05:03:09.325Z,998.85
2017-12-10T05:04:09.365Z,998.82
2017-12-10T05:05:09.651Z,998.83
2017-12-10T05:06:09.767Z,998.76
2017-12-10T05:07:09.100Z,998.73
2017-12-10T05:08:09.265Z,998.76
2017-12-10T05:09:09.644Z,998.72
2017-12-10T05:10:08.829Z,998.72
2017-12-10T05:11:09.025Z,998.62
2017-12-10T05:12:09.044Z,998.61
2017-12-10T05:13:09.247Z,998.55
2017-12-10T05:14:09.433Z,998.54
2017-12-10T05:15:09.661Z,998.56
2017-12-10T05:16:08.900Z,998.53
2017-12-10T05:17:09.106Z,998.48
2017-12-10T05:18:09.135Z,998.51
2017-12-10T05:19:09.226Z,998.50
2017-12-10T05:20:09.572Z,998.49
2017-12-10T05:21:09.695Z,998.44
2017-12-10T05:22:08.793Z,998.42
2017-12-10T05:23:08.992Z,998.39
2017-12-10T05:24:09.099Z,998.37
2017-12-10T05:25:09.419Z,998.37
2017-12-10T05:26:09.675Z,998.33
2017-12-10T05:27:08.928Z,998.32
2017-12-10T05:28:09.056Z,998.30
2017-12-10T05:29:09.044Z,998.22
2017-12-10T05:30:33.564Z,998.22
2017-12-10T05:31:32.758Z,998.13
2017-12-10T05:32:32.804Z,998.13
2017-12-10T05:33:32.875Z,998.10
2017-12-10T05:34:33.055Z,998.04
2017-12-10T05:35:33.219Z,998.02
2017-12-10T05:36:32.431Z,998.02
2017-12-10T05:37:32.846Z,998.00
2017-12-10T05:38:32.975Z,997.97
2017-12-10T05:39:33.208Z,997.92
2017-12-10T05:40:32.282Z,997.87
2017-12-10T05:41:32.471Z,997.80
2017-12-10T05:42:32.693Z,997.81
2017-12-10T05:43:32.885Z,997.77
2017-12-10T05:44:32.979Z,997.76
2017-12-10T05:45:33.179Z,997.71
2017-12-10T05:46:32.365Z,997.65
2017-12-10T05:47:32.538Z,997.64
2017-12-10T05:48:32.664Z,997.58
2017-12-10T05:49:32.848Z,997.55
2017-12-10T05:50:33.058Z,997.55
2017-12-10T05:51:33.246Z,997.52
2017-12-10T05:52:32.549Z,997.46
2017-12-10T05:53:32.608Z,997.43
2017-12-10T05:54:32.737Z,997.38
2017-12-10T05:55:32.843Z,997.33
2017-12-10T05:56:33.202Z,997.34
2017-12-10T05:57:33.283Z,997.33
2017-12-10T05:58:32.407Z,997.33
2017-12-10T05:59:32.777Z,997.30
2017-12-10T06:00:32.953Z,997.30
2017-12-10T06:01:33.094Z,997.23
2017-12-10T06:02:33.177Z,997.24
2017-12-10T06:03:32.365Z,997.20
2017-12-10T06:04:32.485Z,997.19
2017-12-10T06:05:32.655Z,997.21
2017-12-10T06:06:32.906Z,997.15
2017-12-10T06:07:33.050Z,997.19
2017-12-10T06:08:33.304Z,997.16
2017-12-10T06:09:32.437Z,997.06
2017-12-10T06:10:32.688Z,997.09
2017-12-10T06:11:32.938Z,997.03
2017-12-10T06:12:33.131Z,997.02
2017-12-10T06:13:33.298Z,996.93
2017-12-10T06:14:32.390Z,996.93
2017-12-10T06:15:32.548Z,996.88
2017-12-10T06:16:32.731Z,996.83
2017-12-10T06:17:32.853Z,996.81
2017-12-10T06:18:33.142Z,996.72
2017-12-10T06:19:32.477Z,996.71
2017-12-10T06:20:32.682Z,996.63
2017-12-10T06:21:32.917Z,996.61
2017-12-10T06:22:33.138Z,996.57
2017-12-10T06:23:32.490Z,996.55
2017-12-10T06:24:32.852Z,996.60
2017-12-10T06:25:33.234Z,996.51
2017-12-10T06:26:32.469Z,996.49
2017-12-10T06:27:32.483Z,996.43
2017-12-10T06:28:32.496Z,996.38
2017-12-10T06:29:32.689Z,996.34
2017-12-10T06:30:32.777Z,996.32
2017-12-10T06:31:33.064Z,996.26
2017-12-10T06:32:32.436Z,996.27
2017-12-10T06:33:32.702Z,996.21
2017-12-10T06:34:32.946Z,996.19
2017-12-10T06:35:33.090Z,996.14
2017-12-10T06:36:33.244Z,996.12
2017-12-10T06:37:32.490Z,996.11
2017-12-10T06:38:32.725Z,996.05
2017-12-10T06:39:33.084Z,996.05
2017-12-10T06:40:33.357Z,996.04
2017-12-10T06:41:32.548Z,996.09
2017-12-10T06:42:32.682Z,996.02
2017-12-10T06:43:32.812Z,995.98
2017-12-10T06:44:33.104Z,996.03
2017-12-10T06:45:32.397Z,995.94
2017-12-10T06:46:32.683Z,995.89
2017-12-10T06:47:56.956Z,995.85
2017-12-10T06:48:57.168Z,995.86
2017-12-10T06:49:57.207Z,995.87
2017-12-10T06:50:57.455Z,995.86
2017-12-10T06:51:57.663Z,995.83
2017-12-10T06:52:57.894Z,995.79
2017-12-10T06:53:56.983Z,995.71
2017-12-10T06:54:57.124Z,995.71
2017-12-10T06:55:57.429Z,995.71
2017-12-10T06:56:57.593Z,995.74
2017-12-10T06:57:57.724Z,995.71
2017-12-10T06:58:56.955Z,995.69
2017-12-10T06:59:57.176Z,995.68
2017-12-10T07:00:57.481Z,995.62
2017-12-10T07:01:57.692Z,995.67
2017-12-10T07:02:57.713Z,995.61
2017-12-10T07:03:57.805Z,995.59
2017-12-10T07:04:56.988Z,995.56
2017-12-10T07:05:57.197Z,995.55
2017-12-10T07:06:57.303Z,995.50
2017-12-10T07:07:57.553Z,995.51
2017-12-10T07:08:57.854Z,995.50
2017-12-10T07:09:57.132Z,995.49
2017-12-10T07:10:57.404Z,995.48
2017-12-10T07:11:57.638Z,995.44
2017-12-10T07:12:57.825Z,995.45
2017-12-10T07:13:57.151Z,995.34
2017-12-10T07:14:57.568Z,995.38
2017-12-10T07:15:57.917Z,995.30
2017-12-10T07:16:57.371Z,995.28
2017-12-10T07:17:58.015Z,995.26
2017-12-10T07:18:57.423Z,995.25
2017-12-10T07:19:57.726Z,995.23
2017-12-10T07:20:57.180Z,995.15
2017-12-10T07:21:57.544Z,995.16
2017-12-10T07:22:58.096Z,995.15
2017-12-10T07:23:57.590Z,995.14
2017-12-10T07:24:57.860Z,995.12
2017-12-10T07:25:57.159Z,995.10
2017-12-10T07:26:57.423Z,995.04
2017-12-10T07:27:57.680Z,994.96
2017-12-10T07:28:58.004Z,994.96
2017-12-10T07:29:57.236Z,994.91
2017-12-10T07:30:57.503Z,994.84
2017-12-10T07:31:57.644Z,994.77
2017-12-10T07:32:57.831Z,994.76
2017-12-10T07:33:57.126Z,994.73
2017-12-10T07:34:57.337Z,994.72
2017-12-10T07:35:57.648Z,994.66
2017-12-10T07:36:57.923Z,994.61
2017-12-10T07:37:57.377Z,994.59
2017-12-10T07:38:57.499Z,994.60
2017-12-10T07:39:57.789Z,994.55
2017-12-10T07:40:57.908Z,994.54
2017-12-10T07:41:57.149Z,994.52
2017-12-10T07:42:57.352Z,994.50
2017-12-10T07:43:57.688Z,994.52
2017-12-10T07:44:57.824Z,994.48
2017-12-10T07:45:57.941Z,994.45
2017-12-10T07:46:57.368Z,994.42
2017-12-10T07:47:57.603Z,994.36
2017-12-10T07:48:57.680Z,994.32
2017-12-10T07:49:57.040Z,994.29
2017-12-10T07:50:57.306Z,994.26
2017-12-10T07:51:57.519Z,994.24
2017-12-10T07:52:57.878Z,994.20
2017-12-10T07:53:57.086Z,994.12
2017-12-10T07:55:20.167Z,994.10
2017-12-10T07:56:20.636Z,994.11
2017-12-10T07:57:20.719Z,994.08
2017-12-10T07:58:20.950Z,994.04
2017-12-10T07:59:21.163Z,993.98
2017-12-10T08:00:20.507Z,993.94
2017-12-10T08:01:20.902Z,993.85
2017-12-10T08:02:21.190Z,993.82
2017-12-10T08:03:20.375Z,993.74
2017-12-10T08:04:20.577Z,993.73
2017-12-10T08:05:21.355Z,993.72
2017-12-10T08:06:20.629Z,993.66
2017-12-10T08:07:21.021Z,993.64
2017-12-10T08:08:20.420Z,993.58
2017-12-10T08:09:20.607Z,993.53
2017-12-10T08:10:20.662Z,993.55
2017-12-10T08:11:20.915Z,993.50
2017-12-10T08:12:20.382Z,993.50
2017-12-10T08:13:20.699Z,993.45
2017-12-10T08:14:20.870Z,993.41
2017-12-10T08:15:21.023Z,993.31
2017-12-10T08:16:20.519Z,993.29
2017-12-10T08:17:20.923Z,993.31
2017-12-10T08:18:21.499Z,993.31
2017-12-10T08:19:20.719Z,993.26
2017-12-10T08:20:20.906Z,993.23
2017-12-10T08:21:23.316Z,993.20
2017-12-10T08:22:20.606Z,993.15
2017-12-10T08:23:21.526Z,993.13
2017-12-10T08:24:21.735Z,993.11
2017-12-10T08:25:21.962Z,993.12
2017-12-10T08:26:21.198Z,993.05
2017-12-10T08:27:21.228Z,993.01
2017-12-10T08:28:21.351Z,992.97
2017-12-10T08:29:21.268Z,992.97
2017-12-10T08:30:21.281Z,992.97
2017-12-10T08:31:21.398Z,992.95
2017-12-10T08:32:21.416Z,992.93
2017-12-10T08:33:21.457Z,992.93
2017-12-10T08:34:21.451Z,992.83
2017-12-10T08:35:21.567Z,992.80
2017-12-10T08:36:21.674Z,992.71
2017-12-10T08:37:21.731Z,992.71
2017-12-10T08:38:21.659Z,992.62
2017-12-10T08:39:21.864Z,992.59
2017-12-10T08:40:22.496Z,992.64
2017-12-10T08:41:21.552Z,992.60
2017-12-10T08:42:21.661Z,992.56
2017-12-10T08:43:21.726Z,992.61
2017-12-10T08:44:21.847Z,992.54
2017-12-10T08:45:21.891Z,992.57
2017-12-10T08:46:45.034Z,992.53
2017-12-10T08:47:45.214Z,992.48
2017-12-10T08:48:45.452Z,992.46
2017-12-10T08:49:46.812Z,992.43
2017-12-10T08:50:45.988Z,992.42
2017-12-10T08:51:45.236Z,992.39
2017-12-10T08:52:45.423Z,992.39
2017-12-10T08:53:45.357Z,992.37
2017-12-10T08:54:45.565Z,992.25
2017-12-10T08:55:46.289Z,992.25
2017-12-10T08:56:45.275Z,992.15
2017-12-10T08:58:09.277Z,992.06
2017-12-10T08:59:09.246Z,991.98
2017-12-10T09:00:33.893Z,991.95
2017-12-10T09:01:33.990Z,991.87
2017-12-10T09:02:34.096Z,991.83
2017-12-10T09:03:34.183Z,991.76
2017-12-10T09:04:34.283Z,991.70
2017-12-10T09:05:34.400Z,991.74
2017-12-10T09:06:34.652Z,991.68
2017-12-10T09:07:34.954Z,991.71
2017-12-10T09:08:33.957Z,991.75
2017-12-10T09:09:34.117Z,991.67
2017-12-10T09:10:58.086Z,991.61
2017-12-10T09:11:59.168Z,991.58
2017-12-10T09:12:58.288Z,991.49
2017-12-10T09:13:58.492Z,991.47
2017-12-10T09:14:58.687Z,991.40
2017-12-10T09:15:58.950Z,991.41
2017-12-10T09:16:59.866Z,991.34
2017-12-10T09:17:58.933Z,991.32
2017-12-10T09:18:58.898Z,991.28
2017-12-10T09:19:58.285Z,991.24
2017-12-10T09:20:58.496Z,991.16
2017-12-10T09:21:58.744Z,991.10
2017-12-10T09:23:00.111Z,991.05
2017-12-10T09:23:59.763Z,991.03
2017-12-10T09:24:58.996Z,990.88
2017-12-10T09:25:59.112Z,990.82
2017-12-10T09:26:58.341Z,990.78
2017-12-10T09:27:58.588Z,990.78
2017-12-10T09:28:58.810Z,990.80
2017-12-10T09:29:59.265Z,990.70
2017-12-10T09:30:58.584Z,990.66
2017-12-10T09:31:58.960Z,990.60
2017-12-10T09:32:58.314Z,990.57
2017-12-10T09:33:58.692Z,990.50
2017-12-10T09:34:58.836Z,990.46
2017-12-10T09:35:59.129Z,990.38
2017-12-10T09:36:58.371Z,990.35
2017-12-10T09:37:58.791Z,990.29
2017-12-10T09:38:58.990Z,990.29
2017-12-10T09:39:58.194Z,990.28
2017-12-10T09:40:58.326Z,990.22
2017-12-10T09:41:58.551Z,990.19
2017-12-10T09:42:58.568Z,990.09
2017-12-10T09:43:58.805Z,990.06
2017-12-10T09:44:59.039Z,989.97
2017-12-10T09:45:58.279Z,989.90
2017-12-10T09:46:58.558Z,989.87
2017-12-10T09:47:58.764Z,989.81
2017-12-10T09:48:58.867Z,989.81
2017-12-10T09:49:59.050Z,989.74
2017-12-10T09:50:58.129Z,989.74
2017-12-10T09:51:58.866Z,989.66
2017-12-10T09:52:59.113Z,989.63
2017-12-10T09:53:58.518Z,989.61
2017-12-10T09:54:59.050Z,989.54
2017-12-10T09:55:58.651Z,989.53
2017-12-10T09:56:58.847Z,989.50
2017-12-10T09:57:59.078Z,989.49
2017-12-10T09:58:58.830Z,989.40
2017-12-10T09:59:59.083Z,989.33
2017-12-10T10:00:58.219Z,989.25
2017-12-10T10:01:58.448Z,989.18
2017-12-10T10:02:58.861Z,989.18
2017-12-10T10:03:59.031Z,989.18
2017-12-10T10:04:59.160Z,989.11
2017-12-10T10:05:58.169Z,989.03
2017-12-10T10:06:58.441Z,989.01
2017-12-10T10:07:58.458Z,988.99
2017-12-10T10:08:59.234Z,988.97
2017-12-10T10:09:58.344Z,988.98
2017-12-10T10:10:58.409Z,988.97
2017-12-10T10:11:58.308Z,988.88
2017-12-10T10:12:58.471Z,988.95
2017-12-10T10:14:00.444Z,988.78
2017-12-10T10:14:58.451Z,988.79
2017-12-10T10:15:59.226Z,988.70
2017-12-10T10:16:58.312Z,988.62
2017-12-10T10:17:58.452Z,988.68
2017-12-10T10:18:59.906Z,988.65
2017-12-10T10:19:59.079Z,988.58
2017-12-10T10:21:21.979Z,988.56
2017-12-10T10:22:22.264Z,988.45
2017-12-10T10:23:46.134Z,988.38
2017-12-10T10:24:47.261Z,988.26
2017-12-10T10:25:46.472Z,988.19
2017-12-10T10:26:46.766Z,988.21
2017-12-10T10:27:46.876Z,988.18
2017-12-10T10:28:47.139Z,988.16
2017-12-10T10:29:46.404Z,988.05
2017-12-10T10:30:46.440Z,988.02
2017-12-10T10:31:47.216Z,987.92
2017-12-10T10:32:46.505Z,987.97
2017-12-10T10:33:46.753Z,987.90
2017-12-10T10:34:46.865Z,987.89
2017-12-10T10:35:46.899Z,987.88
2017-12-10T10:36:46.966Z,987.80
2017-12-10T10:37:47.104Z,987.73
2017-12-10T10:38:46.859Z,987.67
2017-12-10T10:39:47.189Z,987.60
2017-12-10T10:40:46.579Z,987.60
2017-12-10T10:41:46.909Z,987.50
2017-12-10T10:42:47.122Z,987.54
2017-12-10T10:43:47.109Z,987.50
2017-12-10T10:44:46.367Z,987.39
2017-12-10T10:45:46.695Z,987.36
2017-12-10T10:46:48.184Z,987.27
2017-12-10T10:47:46.318Z,987.21
2017-12-10T10:48:48.963Z,987.12
2017-12-10T10:49:47.076Z,987.11
2017-12-10T10:50:46.279Z,986.99
2017-12-10T10:51:46.499Z,986.98
2017-12-10T10:52:46.601Z,986.98
2017-12-10T10:53:46.797Z,986.97
2017-12-10T10:54:46.929Z,986.92
2017-12-10T10:55:46.978Z,986.85
2017-12-10T10:56:48.741Z,986.81
2017-12-10T10:57:47.292Z,986.76
2017-12-10T10:58:46.407Z,986.69
2017-12-10T10:59:46.491Z,986.57
2017-12-10T11:00:46.674Z,986.56
2017-12-10T11:01:48.361Z,986.52
2017-12-10T11:02:47.286Z,986.49
2017-12-10T11:03:48.155Z,986.41
2017-12-10T11:05:11.340Z,986.32
2017-12-10T11:06:11.552Z,986.25
2017-12-10T11:07:13.118Z,986.19
2017-12-10T11:08:11.499Z,986.11
2017-12-10T11:09:13.052Z,986.04
2017-12-10T11:10:12.487Z,986.00
2017-12-10T11:11:13.159Z,985.97
2017-12-10T11:12:12.513Z,985.95
2017-12-10T11:13:11.890Z,985.92
2017-12-10T11:14:12.185Z,985.86
2017-12-10T11:15:11.575Z,985.84
2017-12-10T11:16:12.071Z,985.67
2017-12-10T11:17:11.426Z,985.59
2017-12-10T11:18:12.444Z,985.52
2017-12-10T11:19:11.693Z,985.51
2017-12-10T11:20:11.776Z,985.42
2017-12-10T11:21:11.941Z,985.34
2017-12-10T11:22:12.044Z,985.32
2017-12-10T11:23:12.823Z,985.32
2017-12-10T11:24:11.844Z,985.29
2017-12-10T11:25:12.000Z,985.22
2017-12-10T11:26:11.967Z,985.15
2017-12-10T11:27:12.401Z,985.07
2017-12-10T11:28:11.597Z,985.08
2017-12-10T11:29:11.787Z,985.05
2017-12-10T11:30:11.896Z,985.02
2017-12-10T11:31:12.294Z,984.94
2017-12-10T11:32:11.623Z,984.89
2017-12-10T11:33:11.783Z,984.87
2017-12-10T11:34:12.040Z,984.79
2017-12-10T11:35:11.359Z,984.74
2017-12-10T11:36:11.565Z,984.68
2017-12-10T11:37:11.585Z,984.64
2017-12-10T11:38:11.614Z,984.60
2017-12-10T11:39:11.813Z,984.58
2017-12-10T11:40:12.047Z,984.45
2017-12-10T11:41:12.196Z,984.39
2017-12-10T11:42:11.640Z,984.39
2017-12-10T11:43:11.861Z,984.40
2017-12-10T11:44:12.192Z,984.36
2017-12-10T11:45:11.424Z,984.28
2017-12-10T11:46:11.572Z,984.31
2017-12-10T11:47:12.335Z,984.37
2017-12-10T11:48:11.420Z,984.30
2017-12-10T11:49:13.008Z,984.24
2017-12-10T11:50:12.813Z,984.28
2017-12-10T11:51:12.094Z,984.21
2017-12-10T11:52:13.180Z,984.15
2017-12-10T11:53:11.660Z,984.06
2017-12-10T11:54:11.931Z,984.08
2017-12-10T11:55:12.129Z,984.02
2017-12-10T11:56:11.586Z,984.04
2017-12-10T11:57:12.342Z,983.98
2017-12-10T11:58:11.570Z,983.95
2017-12-10T11:59:11.675Z,983.97
2017-12-10T12:00:12.076Z,983.99
2017-12-10T12:01:12.407Z,983.95
2017-12-10T12:02:11.677Z,983.92
2017-12-10T12:03:14.804Z,983.92
2017-12-10T12:04:16.257Z,983.93
2017-12-10T12:05:15.513Z,983.87
2017-12-10T12:06:37.399Z,983.90
2017-12-10T12:07:40.081Z,983.91
2017-12-10T12:08:36.517Z,983.84
2017-12-10T12:09:36.895Z,983.77
2017-12-10T12:10:37.395Z,983.79
2017-12-10T12:11:36.916Z,983.79
2017-12-10T12:12:36.344Z,983.81
2017-12-10T12:13:36.789Z,983.75
2017-12-10T12:14:37.273Z,983.61
2017-12-10T12:15:36.782Z,983.56
2017-12-10T12:16:36.453Z,983.50
2017-12-10T12:17:38.729Z,983.44
2017-12-10T12:18:37.673Z,983.31
2017-12-10T12:19:37.149Z,983.29
2017-12-10T12:20:37.540Z,983.27
2017-12-10T12:21:37.189Z,983.18
2017-12-10T12:22:37.154Z,983.17
2017-12-10T12:23:37.021Z,983.15
2017-12-10T12:24:36.951Z,983.11
2017-12-10T12:25:36.734Z,983.13
2017-12-10T12:26:36.937Z,983.06
2017-12-10T12:27:36.528Z,982.93
2017-12-10T12:28:37.082Z,982.92
2017-12-10T12:29:36.699Z,982.90